sensor_id;sensor_type;location;lat;lon;timestamp;P1;durP1;ratioP1;P2;durP2;ratioP2
63114;SDS011;49208;50.874;6.466;2022-10-17T05:01:41;5.95;;;3.55;;
63114;SDS011;49208;50.874;6.466;2022-10-17T05:04:07;6.50;;;4.15;;
63114;SDS011;49208;50.874;6.466;2022-10-17T05:06:32;5.82;;;3.83;;
63114;SDS011;49208;50.874;6.466;2022-10-17T05:08:58;5.90;;;3.63;;
63114;SDS011;49208;50.874;6.466;2022-10-17T05:11:25;6.85;;;4.00;;
63114;SDS011;49208;50.874;6.466;2022-10-17T05:13:52;6.85;;;4.00;;
63114;SDS011;49208;50.874;6.466;2022-10-17T05:16:19;6.45;;;4.07;;
63114;SDS011;49208;50.874;6.466;2022-10-17T05:18:48;7.10;;;3.83;;
63114;SDS011;49208;50.874;6.466;2022-10-17T05:21:15;10.75;;;3.65;;
63114;SDS011;49208;50.874;6.466;2022-10-17T05:23:40;6.32;;;3.55;;
63114;SDS011;49208;50.874;6.466;2022-10-17T05:26:06;9.27;;;3.60;;
63114;SDS011;49208;50.874;6.466;2022-10-17T05:28:31;8.38;;;4.18;;
63114;SDS011;49208;50.874;6.466;2022-10-17T05:31:01;9.02;;;4.82;;
63114;SDS011;49208;50.874;6.466;2022-10-17T05:33:27;8.07;;;4.57;;
63114;SDS011;49208;50.874;6.466;2022-10-17T05:35:53;8.60;;;4.93;;
63114;SDS011;49208;50.874;6.466;2022-10-17T05:38:18;9.93;;;4.63;;
63114;SDS011;49208;50.874;6.466;2022-10-17T05:40:43;10.02;;;4.15;;
63114;SDS011;49208;50.874;6.466;2022-10-17T05:43:09;6.63;;;3.65;;
63114;SDS011;49208;50.874;6.466;2022-10-17T05:45:34;6.07;;;3.45;;
63114;SDS011;49208;50.874;6.466;2022-10-17T05:48:00;6.20;;;3.97;;
63114;SDS011;49208;50.874;6.466;2022-10-17T05:50:25;5.97;;;4.00;;
63114;SDS011;49208;50.874;6.466;2022-10-17T05:52:54;7.72;;;4.05;;
63114;SDS011;49208;50.874;6.466;2022-10-17T05:55:20;7.72;;;4.10;;
63114;SDS011;49208;50.874;6.466;2022-10-17T05:57:46;6.60;;;4.20;;
63114;SDS011;49208;50.874;6.466;2022-10-17T06:00:11;6.55;;;4.10;;
63114;SDS011;49208;50.874;6.466;2022-10-17T06:02:37;6.22;;;4.20;;
63114;SDS011;49208;50.874;6.466;2022-10-17T06:05:03;7.63;;;4.65;;
63114;SDS011;49208;50.874;6.466;2022-10-17T06:07:28;7.22;;;4.10;;
63114;SDS011;49208;50.874;6.466;2022-10-17T06:09:54;8.57;;;4.38;;
63114;SDS011;49208;50.874;6.466;2022-10-17T06:12:19;6.68;;;4.13;;
63114;SDS011;49208;50.874;6.466;2022-10-17T06:14:44;7.18;;;4.18;;
63114;SDS011;49208;50.874;6.466;2022-10-17T06:17:10;7.07;;;4.38;;
63114;SDS011;49208;50.874;6.466;2022-10-17T06:19:35;7.55;;;5.18;;
63114;SDS011;49208;50.874;6.466;2022-10-17T06:22:00;7.05;;;4.25;;
63114;SDS011;49208;50.874;6.466;2022-10-17T06:24:26;7.88;;;4.22;;
63114;SDS011;49208;50.874;6.466;2022-10-17T06:26:51;6.85;;;3.92;;
63114;SDS011;49208;50.874;6.466;2022-10-17T06:29:17;5.78;;;4.35;;
63114;SDS011;49208;50.874;6.466;2022-10-17T06:31:42;8.82;;;4.63;;
63114;SDS011;49208;50.874;6.466;2022-10-17T06:34:08;7.47;;;4.80;;
63114;SDS011;49208;50.874;6.466;2022-10-17T06:36:33;6.65;;;4.60;;
63114;SDS011;49208;50.874;6.466;2022-10-17T06:38:59;7.90;;;4.57;;
63114;SDS011;49208;50.874;6.466;2022-10-17T06:41:24;7.15;;;4.47;;
63114;SDS011;49208;50.874;6.466;2022-10-17T06:43:50;7.05;;;4.45;;
63114;SDS011;49208;50.874;6.466;2022-10-17T06:46:16;6.10;;;4.20;;
63114;SDS011;49208;50.874;6.466;2022-10-17T06:48:42;10.85;;;4.88;;
63114;SDS011;49208;50.874;6.466;2022-10-17T06:51:08;10.95;;;5.28;;
63114;SDS011;49208;50.874;6.466;2022-10-17T06:53:35;11.98;;;5.30;;
63114;SDS011;49208;50.874;6.466;2022-10-17T06:56:01;8.93;;;4.67;;
63114;SDS011;49208;50.874;6.466;2022-10-17T06:58:35;6.47;;;4.18;;
63114;SDS011;49208;50.874;6.466;2022-10-17T07:01:05;7.70;;;4.55;;
63114;SDS011;49208;50.874;6.466;2022-10-17T07:03:35;9.23;;;4.38;;
63114;SDS011;49208;50.874;6.466;2022-10-17T07:06:01;8.13;;;4.38;;
63114;SDS011;49208;50.874;6.466;2022-10-17T07:08:27;8.52;;;4.35;;
63114;SDS011;49208;50.874;6.466;2022-10-17T07:10:53;6.75;;;4.13;;
63114;SDS011;49208;50.874;6.466;2022-10-17T07:13:19;5.78;;;3.53;;
63114;SDS011;49208;50.874;6.466;2022-10-17T07:15:45;10.07;;;4.45;;
63114;SDS011;49208;50.874;6.466;2022-10-17T07:18:10;7.38;;;3.45;;
63114;SDS011;49208;50.874;6.466;2022-10-17T07:20:36;7.25;;;3.70;;
63114;SDS011;49208;50.874;6.466;2022-10-17T07:23:02;11.38;;;4.05;;
63114;SDS011;49208;50.874;6.466;2022-10-17T07:25:27;5.95;;;3.95;;
63114;SDS011;49208;50.874;6.466;2022-10-17T07:27:53;8.73;;;4.15;;
63114;SDS011;49208;50.874;6.466;2022-10-17T07:30:19;9.82;;;4.03;;
63114;SDS011;49208;50.874;6.466;2022-10-17T07:32:45;7.55;;;3.83;;
63114;SDS011;49208;50.874;6.466;2022-10-17T07:35:10;6.18;;;3.67;;
63114;SDS011;49208;50.874;6.466;2022-10-17T07:37:36;8.25;;;3.58;;
63114;SDS011;49208;50.874;6.466;2022-10-17T07:40:02;6.85;;;3.20;;
63114;SDS011;49208;50.874;6.466;2022-10-17T07:42:30;9.60;;;4.05;;
63114;SDS011;49208;50.874;6.466;2022-10-17T07:44:56;8.02;;;3.80;;
63114;SDS011;49208;50.874;6.466;2022-10-17T07:47:21;6.65;;;3.38;;
63114;SDS011;49208;50.874;6.466;2022-10-17T07:49:46;6.47;;;3.53;;
63114;SDS011;49208;50.874;6.466;2022-10-17T07:52:12;7.78;;;3.92;;
63114;SDS011;49208;50.874;6.466;2022-10-17T07:54:38;9.48;;;3.28;;
63114;SDS011;49208;50.874;6.466;2022-10-17T07:57:04;8.57;;;3.67;;
63114;SDS011;49208;50.874;6.466;2022-10-17T07:59:31;11.13;;;3.78;;
63114;SDS011;49208;50.874;6.466;2022-10-17T08:01:57;7.60;;;3.55;;
63114;SDS011;49208;50.874;6.466;2022-10-17T08:04:23;6.75;;;3.58;;
63114;SDS011;49208;50.874;6.466;2022-10-17T08:06:49;8.60;;;3.55;;
63114;SDS011;49208;50.874;6.466;2022-10-17T08:09:15;8.50;;;3.70;;
63114;SDS011;49208;50.874;6.466;2022-10-17T08:11:40;8.93;;;3.42;;
63114;SDS011;49208;50.874;6.466;2022-10-17T08:14:08;6.47;;;3.40;;
63114;SDS011;49208;50.874;6.466;2022-10-17T08:16:34;5.55;;;3.45;;
63114;SDS011;49208;50.874;6.466;2022-10-17T08:19:00;10.32;;;4.38;;
63114;SDS011;49208;50.874;6.466;2022-10-17T08:21:26;8.15;;;3.78;;
63114;SDS011;49208;50.874;6.466;2022-10-17T08:23:51;9.05;;;3.45;;
63114;SDS011;49208;50.874;6.466;2022-10-17T08:26:17;6.47;;;3.75;;
63114;SDS011;49208;50.874;6.466;2022-10-17T08:28:44;5.72;;;3.20;;
63114;SDS011;49208;50.874;6.466;2022-10-17T08:31:19;8.07;;;3.55;;
63114;SDS011;49208;50.874;6.466;2022-10-17T08:33:46;11.45;;;4.13;;
63114;SDS011;49208;50.874;6.466;2022-10-17T08:36:13;9.70;;;4.35;;
63114;SDS011;49208;50.874;6.466;2022-10-17T08:38:40;9.07;;;3.75;;
63114;SDS011;49208;50.874;6.466;2022-10-17T08:47:03;9.85;;;3.90;;
63114;SDS011;49208;50.874;6.466;2022-10-17T08:52:28;7.20;;;3.75;;
63114;SDS011;49208;50.874;6.466;2022-10-17T08:54:57;8.75;;;3.33;;
63114;SDS011;49208;50.874;6.466;2022-10-17T08:57:23;7.75;;;3.67;;
63114;SDS011;49208;50.874;6.466;2022-10-17T08:59:49;7.25;;;4.03;;
63114;SDS011;49208;50.874;6.466;2022-10-17T09:10:08;6.15;;;3.90;;
63114;SDS011;49208;50.874;6.466;2022-10-17T09:15:39;6.78;;;4.05;;
63114;SDS011;49208;50.874;6.466;2022-10-17T09:18:24;5.82;;;3.50;;
63114;SDS011;49208;50.874;6.466;2022-10-17T09:20:56;5.95;;;3.35;;
63114;SDS011;49208;50.874;6.466;2022-10-17T09:23:44;8.18;;;4.05;;
63114;SDS011;49208;50.874;6.466;2022-10-17T09:26:20;5.13;;;3.13;;
63114;SDS011;49208;50.874;6.466;2022-10-17T09:28:50;6.18;;;3.10;;
63114;SDS011;49208;50.874;6.466;2022-10-17T09:31:23;9.38;;;3.30;;
63114;SDS011;49208;50.874;6.466;2022-10-17T09:33:54;6.40;;;3.40;;
63114;SDS011;49208;50.874;6.466;2022-10-17T09:36:23;5.78;;;2.75;;
63114;SDS011;49208;50.874;6.466;2022-10-17T09:39:02;7.28;;;3.40;;
63114;SDS011;49208;50.874;6.466;2022-10-17T09:49:38;6.70;;;3.17;;
63114;SDS011;49208;50.874;6.466;2022-10-17T09:52:10;8.00;;;3.00;;
63114;SDS011;49208;50.874;6.466;2022-10-17T09:54:46;5.90;;;3.10;;
63114;SDS011;49208;50.874;6.466;2022-10-17T09:57:12;5.63;;;3.38;;
63114;SDS011;49208;50.874;6.466;2022-10-17T10:02:14;10.73;;;3.85;;
63114;SDS011;49208;50.874;6.466;2022-10-17T10:05:02;9.85;;;4.07;;
63114;SDS011;49208;50.874;6.466;2022-10-17T10:07:30;6.00;;;3.10;;
63114;SDS011;49208;50.874;6.466;2022-10-17T10:09:58;6.95;;;3.05;;
63114;SDS011;49208;50.874;6.466;2022-10-17T10:12:25;5.18;;;2.97;;
63114;SDS011;49208;50.874;6.466;2022-10-17T10:14:54;5.55;;;3.03;;
63114;SDS011;49208;50.874;6.466;2022-10-17T10:19:57;6.80;;;2.88;;
63114;SDS011;49208;50.874;6.466;2022-10-17T10:22:23;5.50;;;3.10;;
63114;SDS011;49208;50.874;6.466;2022-10-17T10:27:46;7.93;;;3.00;;
63114;SDS011;49208;50.874;6.466;2022-10-17T10:30:19;7.47;;;3.10;;
63114;SDS011;49208;50.874;6.466;2022-10-17T10:32:48;6.10;;;3.15;;
63114;SDS011;49208;50.874;6.466;2022-10-17T10:35:21;4.85;;;2.75;;
63114;SDS011;49208;50.874;6.466;2022-10-17T10:37:54;4.70;;;3.17;;
63114;SDS011;49208;50.874;6.466;2022-10-17T10:40:29;7.45;;;2.95;;
63114;SDS011;49208;50.874;6.466;2022-10-17T10:42:59;5.55;;;2.97;;
63114;SDS011;49208;50.874;6.466;2022-10-17T10:45:38;6.30;;;2.93;;
63114;SDS011;49208;50.874;6.466;2022-10-17T10:50:48;4.80;;;3.42;;
63114;SDS011;49208;50.874;6.466;2022-10-17T11:05:13;5.43;;;3.40;;
63114;SDS011;49208;50.874;6.466;2022-10-17T11:10:42;7.47;;;2.95;;
63114;SDS011;49208;50.874;6.466;2022-10-17T11:15:50;5.72;;;3.53;;
63114;SDS011;49208;50.874;6.466;2022-10-17T11:18:37;4.38;;;2.75;;
63114;SDS011;49208;50.874;6.466;2022-10-17T11:21:15;8.30;;;3.35;;
63114;SDS011;49208;50.874;6.466;2022-10-17T11:26:32;7.03;;;3.65;;
63114;SDS011;49208;50.874;6.466;2022-10-17T11:29:02;7.55;;;3.35;;
63114;SDS011;49208;50.874;6.466;2022-10-17T11:31:33;5.68;;;3.08;;
63114;SDS011;49208;50.874;6.466;2022-10-17T11:34:09;5.82;;;2.80;;
63114;SDS011;49208;50.874;6.466;2022-10-17T11:36:37;5.32;;;3.58;;
63114;SDS011;49208;50.874;6.466;2022-10-17T11:39:19;6.60;;;3.30;;
63114;SDS011;49208;50.874;6.466;2022-10-17T11:41:51;6.72;;;3.80;;
63114;SDS011;49208;50.874;6.466;2022-10-17T11:49:46;9.48;;;3.75;;
63114;SDS011;49208;50.874;6.466;2022-10-17T11:54:49;5.05;;;2.65;;
63114;SDS011;49208;50.874;6.466;2022-10-17T11:59:56;6.05;;;2.67;;
63114;SDS011;49208;50.874;6.466;2022-10-17T12:07:51;8.38;;;2.92;;
63114;SDS011;49208;50.874;6.466;2022-10-17T12:12:55;7.32;;;2.72;;
63114;SDS011;49208;50.874;6.466;2022-10-17T12:17:59;6.40;;;2.83;;
63114;SDS011;49208;50.874;6.466;2022-10-17T12:25:57;5.45;;;2.35;;
63114;SDS011;49208;50.874;6.466;2022-10-17T12:28:32;7.32;;;2.40;;
63114;SDS011;49208;50.874;6.466;2022-10-17T12:31:07;11.57;;;3.65;;
63114;SDS011;49208;50.874;6.466;2022-10-17T12:38:41;8.65;;;2.70;;
63114;SDS011;49208;50.874;6.466;2022-10-17T12:41:08;5.88;;;2.85;;
63114;SDS011;49208;50.874;6.466;2022-10-17T12:43:35;11.02;;;2.63;;
63114;SDS011;49208;50.874;6.466;2022-10-17T12:46:07;6.65;;;2.40;;
63114;SDS011;49208;50.874;6.466;2022-10-17T12:51:08;7.25;;;2.78;;
63114;SDS011;49208;50.874;6.466;2022-10-17T12:56:02;7.32;;;3.05;;
63114;SDS011;49208;50.874;6.466;2022-10-17T12:58:28;6.10;;;2.50;;
63114;SDS011;49208;50.874;6.466;2022-10-17T13:00:55;7.32;;;2.60;;
63114;SDS011;49208;50.874;6.466;2022-10-17T13:04:04;4.95;;;2.25;;
63114;SDS011;49208;50.874;6.466;2022-10-17T13:06:35;5.90;;;2.47;;
63114;SDS011;49208;50.874;6.466;2022-10-17T13:09:14;6.18;;;2.42;;
63114;SDS011;49208;50.874;6.466;2022-10-17T13:11:44;3.92;;;1.85;;
63114;SDS011;49208;50.874;6.466;2022-10-17T13:14:13;10.43;;;2.55;;
63114;SDS011;49208;50.874;6.466;2022-10-17T13:16:51;5.63;;;2.35;;
63114;SDS011;49208;50.874;6.466;2022-10-17T13:19:20;4.00;;;1.95;;
63114;SDS011;49208;50.874;6.466;2022-10-17T13:21:51;6.85;;;2.00;;
63114;SDS011;49208;50.874;6.466;2022-10-17T13:27:01;6.65;;;3.10;;
63114;SDS011;49208;50.874;6.466;2022-10-17T13:29:27;7.72;;;3.50;;
63114;SDS011;49208;50.874;6.466;2022-10-17T13:32:08;5.75;;;2.30;;
63114;SDS011;49208;50.874;6.466;2022-10-17T13:34:34;7.72;;;3.20;;
63114;SDS011;49208;50.874;6.466;2022-10-17T13:37:00;7.05;;;2.22;;
63114;SDS011;49208;50.874;6.466;2022-10-17T13:39:37;7.35;;;2.72;;
63114;SDS011;49208;50.874;6.466;2022-10-17T13:42:04;6.88;;;2.63;;
63114;SDS011;49208;50.874;6.466;2022-10-17T13:44:32;8.65;;;3.25;;
63114;SDS011;49208;50.874;6.466;2022-10-17T13:46:59;5.65;;;2.50;;
63114;SDS011;49208;50.874;6.466;2022-10-17T13:52:05;6.85;;;2.53;;
63114;SDS011;49208;50.874;6.466;2022-10-17T13:54:39;5.75;;;2.10;;
63114;SDS011;49208;50.874;6.466;2022-10-17T13:57:25;6.55;;;2.42;;
63114;SDS011;49208;50.874;6.466;2022-10-17T13:59:58;4.50;;;2.58;;
63114;SDS011;49208;50.874;6.466;2022-10-17T14:02:32;7.60;;;2.20;;
63114;SDS011;49208;50.874;6.466;2022-10-17T14:07:38;7.43;;;2.90;;
63114;SDS011;49208;50.874;6.466;2022-10-17T14:10:38;7.85;;;2.40;;
63114;SDS011;49208;50.874;6.466;2022-10-17T14:13:04;7.60;;;2.70;;
63114;SDS011;49208;50.874;6.466;2022-10-17T14:15:34;5.97;;;2.40;;
63114;SDS011;49208;50.874;6.466;2022-10-17T14:18:05;3.83;;;1.83;;
63114;SDS011;49208;50.874;6.466;2022-10-17T14:20:32;6.13;;;2.40;;
63114;SDS011;49208;50.874;6.466;2022-10-17T14:22:59;4.53;;;2.05;;
63114;SDS011;49208;50.874;6.466;2022-10-17T14:25:28;7.40;;;2.35;;
63114;SDS011;49208;50.874;6.466;2022-10-17T14:28:00;7.80;;;2.30;;
63114;SDS011;49208;50.874;6.466;2022-10-17T14:30:31;5.82;;;2.05;;
63114;SDS011;49208;50.874;6.466;2022-10-17T14:32:59;7.55;;;2.83;;
63114;SDS011;49208;50.874;6.466;2022-10-17T14:35:29;5.60;;;2.20;;
63114;SDS011;49208;50.874;6.466;2022-10-17T14:37:59;4.60;;;2.17;;
63114;SDS011;49208;50.874;6.466;2022-10-17T14:40:27;8.48;;;2.53;;
63114;SDS011;49208;50.874;6.466;2022-10-17T14:42:55;6.25;;;2.80;;
63114;SDS011;49208;50.874;6.466;2022-10-17T14:48:11;9.05;;;2.63;;
63114;SDS011;49208;50.874;6.466;2022-10-17T14:50:40;6.00;;;2.30;;
63114;SDS011;49208;50.874;6.466;2022-10-17T14:55:36;4.32;;;2.40;;
63114;SDS011;49208;50.874;6.466;2022-10-17T15:01:01;7.40;;;2.83;;
63114;SDS011;49208;50.874;6.466;2022-10-17T15:03:26;9.20;;;4.10;;
63114;SDS011;49208;50.874;6.466;2022-10-17T15:05:52;11.73;;;4.75;;
63114;SDS011;49208;50.874;6.466;2022-10-17T15:08:20;9.75;;;5.10;;
63114;SDS011;49208;50.874;6.466;2022-10-17T15:10:47;7.85;;;2.92;;
63114;SDS011;49208;50.874;6.466;2022-10-17T15:13:13;8.05;;;2.65;;
63114;SDS011;49208;50.874;6.466;2022-10-17T15:15:39;7.00;;;3.00;;
63114;SDS011;49208;50.874;6.466;2022-10-17T15:18:06;5.90;;;3.00;;
63114;SDS011;49208;50.874;6.466;2022-10-17T15:20:34;7.13;;;3.00;;
63114;SDS011;49208;50.874;6.466;2022-10-17T15:23:00;7.03;;;3.70;;
63114;SDS011;49208;50.874;6.466;2022-10-17T15:25:26;8.13;;;3.25;;
63114;SDS011;49208;50.874;6.466;2022-10-17T15:27:53;5.15;;;2.33;;
63114;SDS011;49208;50.874;6.466;2022-10-17T15:30:22;6.25;;;2.72;;
63114;SDS011;49208;50.874;6.466;2022-10-17T15:32:52;8.98;;;3.00;;
63114;SDS011;49208;50.874;6.466;2022-10-17T15:35:18;7.15;;;3.00;;
63114;SDS011;49208;50.874;6.466;2022-10-17T15:37:44;7.05;;;2.97;;
63114;SDS011;49208;50.874;6.466;2022-10-17T15:40:21;6.43;;;3.38;;
63114;SDS011;49208;50.874;6.466;2022-10-17T15:42:52;7.60;;;2.95;;
63114;SDS011;49208;50.874;6.466;2022-10-17T15:45:18;7.35;;;3.17;;
63114;SDS011;49208;50.874;6.466;2022-10-17T15:47:49;10.93;;;4.05;;
63114;SDS011;49208;50.874;6.466;2022-10-17T15:50:17;5.43;;;3.42;;
63114;SDS011;49208;50.874;6.466;2022-10-17T15:52:42;10.20;;;3.83;;
63114;SDS011;49208;50.874;6.466;2022-10-17T15:55:08;10.10;;;4.40;;
63114;SDS011;49208;50.874;6.466;2022-10-17T15:57:36;6.97;;;3.75;;
63114;SDS011;49208;50.874;6.466;2022-10-17T16:00:12;9.00;;;3.90;;
63114;SDS011;49208;50.874;6.466;2022-10-17T16:02:42;10.05;;;4.75;;
63114;SDS011;49208;50.874;6.466;2022-10-17T16:05:18;7.13;;;4.35;;
63114;SDS011;49208;50.874;6.466;2022-10-17T16:07:47;8.27;;;5.07;;
63114;SDS011;49208;50.874;6.466;2022-10-17T16:10:14;10.40;;;5.90;;
63114;SDS011;49208;50.874;6.466;2022-10-17T16:12:40;9.67;;;6.03;;
63114;SDS011;49208;50.874;6.466;2022-10-17T16:15:16;10.70;;;5.53;;
63114;SDS011;49208;50.874;6.466;2022-10-17T16:17:42;7.55;;;4.68;;
63114;SDS011;49208;50.874;6.466;2022-10-17T16:20:09;7.57;;;3.92;;
63114;SDS011;49208;50.874;6.466;2022-10-17T16:22:35;7.80;;;3.85;;
63114;SDS011;49208;50.874;6.466;2022-10-17T16:25:02;7.70;;;4.28;;
63114;SDS011;49208;50.874;6.466;2022-10-17T16:27:34;11.70;;;4.63;;
63114;SDS011;49208;50.874;6.466;2022-10-17T16:30:00;8.55;;;4.75;;
63114;SDS011;49208;50.874;6.466;2022-10-17T16:32:26;7.15;;;4.40;;
63114;SDS011;49208;50.874;6.466;2022-10-17T16:34:51;11.52;;;5.07;;
63114;SDS011;49208;50.874;6.466;2022-10-17T16:37:17;9.05;;;4.82;;
63114;SDS011;49208;50.874;6.466;2022-10-17T16:39:42;8.18;;;4.28;;
63114;SDS011;49208;50.874;6.466;2022-10-17T16:42:12;6.95;;;4.75;;
63114;SDS011;49208;50.874;6.466;2022-10-17T16:44:38;8.02;;;4.40;;
63114;SDS011;49208;50.874;6.466;2022-10-17T16:47:03;7.47;;;3.85;;
63114;SDS011;49208;50.874;6.466;2022-10-17T16:49:29;8.45;;;4.07;;
63114;SDS011;49208;50.874;6.466;2022-10-17T16:51:54;8.85;;;4.20;;
63114;SDS011;49208;50.874;6.466;2022-10-17T16:54:19;7.13;;;4.32;;
63114;SDS011;49208;50.874;6.466;2022-10-17T16:56:45;8.43;;;4.30;;
63114;SDS011;49208;50.874;6.466;2022-10-17T16:59:10;9.25;;;4.70;;
63114;SDS011;49208;50.874;6.466;2022-10-17T17:01:36;6.45;;;3.83;;
63114;SDS011;49208;50.874;6.466;2022-10-17T17:04:02;6.10;;;3.45;;
63114;SDS011;49208;50.874;6.466;2022-10-17T17:06:28;7.60;;;3.50;;
63114;SDS011;49208;50.874;6.466;2022-10-17T17:08:54;8.68;;;3.22;;
63114;SDS011;49208;50.874;6.466;2022-10-17T17:11:21;6.13;;;3.28;;
63114;SDS011;49208;50.874;6.466;2022-10-17T17:13:48;6.65;;;3.50;;
63114;SDS011;49208;50.874;6.466;2022-10-17T17:16:15;7.03;;;3.30;;
63114;SDS011;49208;50.874;6.466;2022-10-17T17:18:42;4.80;;;3.05;;
63114;SDS011;49208;50.874;6.466;2022-10-17T17:23:36;5.10;;;3.35;;
63114;SDS011;49208;50.874;6.466;2022-10-17T17:26:13;5.18;;;3.05;;
63114;SDS011;49208;50.874;6.466;2022-10-17T17:28:41;4.88;;;3.38;;
63114;SDS011;49208;50.874;6.466;2022-10-17T17:31:08;7.43;;;3.53;;
63114;SDS011;49208;50.874;6.466;2022-10-17T17:33:36;5.30;;;3.03;;
63114;SDS011;49208;50.874;6.466;2022-10-17T17:36:02;6.20;;;3.15;;
63114;SDS011;49208;50.874;6.466;2022-10-17T17:38:29;5.97;;;3.13;;
63114;SDS011;49208;50.874;6.466;2022-10-17T17:40:56;8.13;;;3.53;;
63114;SDS011;49208;50.874;6.466;2022-10-17T17:43:21;6.72;;;4.18;;
63114;SDS011;49208;50.874;6.466;2022-10-17T17:45:47;7.15;;;3.70;;
63114;SDS011;49208;50.874;6.466;2022-10-17T17:48:12;5.82;;;3.30;;
63114;SDS011;49208;50.874;6.466;2022-10-17T17:50:38;6.00;;;2.80;;
63114;SDS011;49208;50.874;6.466;2022-10-17T17:55:31;5.22;;;2.53;;
63114;SDS011;49208;50.874;6.466;2022-10-17T17:57:57;5.10;;;2.30;;
63114;SDS011;49208;50.874;6.466;2022-10-17T18:00:22;7.05;;;2.17;;
63114;SDS011;49208;50.874;6.466;2022-10-17T18:02:48;7.82;;;2.20;;
63114;SDS011;49208;50.874;6.466;2022-10-17T18:05:13;5.47;;;1.73;;
63114;SDS011;49208;50.874;6.466;2022-10-17T18:07:39;3.58;;;1.60;;
63114;SDS011;49208;50.874;6.466;2022-10-17T18:10:04;5.70;;;2.17;;
63114;SDS011;49208;50.874;6.466;2022-10-17T18:12:30;10.60;;;4.55;;
63114;SDS011;49208;50.874;6.466;2022-10-17T18:14:56;10.70;;;4.72;;
63114;SDS011;49208;50.874;6.466;2022-10-17T18:17:22;6.38;;;3.08;;
63114;SDS011;49208;50.874;6.466;2022-10-17T18:19:47;5.47;;;2.65;;
63114;SDS011;49208;50.874;6.466;2022-10-17T18:22:13;5.10;;;2.50;;
63114;SDS011;49208;50.874;6.466;2022-10-17T18:24:38;5.20;;;1.80;;
63114;SDS011;49208;50.874;6.466;2022-10-17T18:27:04;3.05;;;1.50;;
63114;SDS011;49208;50.874;6.466;2022-10-17T18:29:30;3.78;;;1.50;;
63114;SDS011;49208;50.874;6.466;2022-10-17T18:31:56;8.10;;;2.00;;
63114;SDS011;49208;50.874;6.466;2022-10-17T18:34:22;2.63;;;1.00;;
63114;SDS011;49208;50.874;6.466;2022-10-17T18:36:47;4.65;;;1.85;;
63114;SDS011;49208;50.874;6.466;2022-10-17T18:39:13;4.50;;;1.67;;
63114;SDS011;49208;50.874;6.466;2022-10-17T18:41:38;2.85;;;1.55;;
63114;SDS011;49208;50.874;6.466;2022-10-17T18:44:03;4.43;;;1.52;;
63114;SDS011;49208;50.874;6.466;2022-10-17T18:46:30;5.38;;;1.70;;
63114;SDS011;49208;50.874;6.466;2022-10-17T18:49:00;3.55;;;1.88;;
63114;SDS011;49208;50.874;6.466;2022-10-17T18:51:26;5.35;;;2.50;;
63114;SDS011;49208;50.874;6.466;2022-10-17T18:53:52;4.47;;;2.28;;
63114;SDS011;49208;50.874;6.466;2022-10-17T18:56:19;5.15;;;1.92;;
63114;SDS011;49208;50.874;6.466;2022-10-17T18:58:45;5.65;;;1.92;;
63114;SDS011;49208;50.874;6.466;2022-10-17T19:01:12;6.80;;;2.10;;
63114;SDS011;49208;50.874;6.466;2022-10-17T19:03:40;4.68;;;2.20;;
63114;SDS011;49208;50.874;6.466;2022-10-17T19:06:07;4.30;;;2.47;;
63114;SDS011;49208;50.874;6.466;2022-10-17T19:11:19;4.93;;;2.67;;
63114;SDS011;49208;50.874;6.466;2022-10-17T19:13:46;5.00;;;3.03;;
63114;SDS011;49208;50.874;6.466;2022-10-17T19:16:22;5.28;;;2.88;;
63114;SDS011;49208;50.874;6.466;2022-10-17T19:18:51;6.32;;;2.60;;
63114;SDS011;49208;50.874;6.466;2022-10-17T19:21:18;5.13;;;2.28;;
63114;SDS011;49208;50.874;6.466;2022-10-17T19:23:47;5.13;;;2.45;;
63114;SDS011;49208;50.874;6.466;2022-10-17T19:26:20;4.38;;;1.95;;
63114;SDS011;49208;50.874;6.466;2022-10-17T19:28:47;4.25;;;1.67;;
63114;SDS011;49208;50.874;6.466;2022-10-17T19:31:15;3.58;;;1.70;;
63114;SDS011;49208;50.874;6.466;2022-10-17T19:33:42;4.78;;;2.10;;
63114;SDS011;49208;50.874;6.466;2022-10-17T19:36:08;3.33;;;1.58;;
63114;SDS011;49208;50.874;6.466;2022-10-17T19:38:35;3.80;;;1.80;;
63114;SDS011;49208;50.874;6.466;2022-10-17T19:41:04;4.53;;;1.80;;
63114;SDS011;49208;50.874;6.466;2022-10-17T19:43:36;3.72;;;1.60;;
63114;SDS011;49208;50.874;6.466;2022-10-17T19:46:03;2.97;;;1.25;;
63114;SDS011;49208;50.874;6.466;2022-10-17T19:48:31;3.60;;;1.77;;
63114;SDS011;49208;50.874;6.466;2022-10-17T19:50:58;4.57;;;1.95;;
63114;SDS011;49208;50.874;6.466;2022-10-17T19:53:23;4.45;;;2.20;;
63114;SDS011;49208;50.874;6.466;2022-10-17T19:55:51;8.18;;;3.75;;
63114;SDS011;49208;50.874;6.466;2022-10-17T19:58:16;9.65;;;5.78;;
63114;SDS011;49208;50.874;6.466;2022-10-17T20:00:49;7.65;;;4.55;;
63114;SDS011;49208;50.874;6.466;2022-10-17T20:03:16;7.63;;;4.65;;
63114;SDS011;49208;50.874;6.466;2022-10-17T20:05:42;6.15;;;3.35;;
63114;SDS011;49208;50.874;6.466;2022-10-17T20:08:08;5.18;;;2.58;;
63114;SDS011;49208;50.874;6.466;2022-10-17T20:10:33;5.13;;;2.67;;
63114;SDS011;49208;50.874;6.466;2022-10-17T20:12:59;5.15;;;2.22;;
63114;SDS011;49208;50.874;6.466;2022-10-17T20:15:24;6.53;;;2.20;;
63114;SDS011;49208;50.874;6.466;2022-10-17T20:17:50;3.90;;;1.90;;
63114;SDS011;49208;50.874;6.466;2022-10-17T20:20:15;4.00;;;2.13;;
63114;SDS011;49208;50.874;6.466;2022-10-17T20:22:41;4.35;;;1.80;;
63114;SDS011;49208;50.874;6.466;2022-10-17T20:25:06;3.45;;;1.58;;
63114;SDS011;49208;50.874;6.466;2022-10-17T20:27:32;3.15;;;1.58;;
63114;SDS011;49208;50.874;6.466;2022-10-17T20:29:57;3.55;;;1.75;;
63114;SDS011;49208;50.874;6.466;2022-10-17T20:32:26;4.25;;;1.92;;
63114;SDS011;49208;50.874;6.466;2022-10-17T20:34:55;5.40;;;2.15;;
63114;SDS011;49208;50.874;6.466;2022-10-17T20:37:20;3.58;;;1.85;;
63114;SDS011;49208;50.874;6.466;2022-10-17T20:39:46;3.58;;;1.50;;
63114;SDS011;49208;50.874;6.466;2022-10-17T20:42:11;3.95;;;2.00;;
63114;SDS011;49208;50.874;6.466;2022-10-17T20:44:37;3.63;;;2.00;;
63114;SDS011;49208;50.874;6.466;2022-10-17T20:47:03;3.45;;;1.90;;
63114;SDS011;49208;50.874;6.466;2022-10-17T20:49:28;3.88;;;2.05;;
63114;SDS011;49208;50.874;6.466;2022-10-17T20:51:54;4.20;;;1.77;;
63114;SDS011;49208;50.874;6.466;2022-10-17T20:54:20;3.85;;;1.90;;
63114;SDS011;49208;50.874;6.466;2022-10-17T20:56:46;4.80;;;1.90;;
63114;SDS011;49208;50.874;6.466;2022-10-17T20:59:12;4.43;;;2.10;;
63114;SDS011;49208;50.874;6.466;2022-10-17T21:01:40;6.43;;;2.10;;
63114;SDS011;49208;50.874;6.466;2022-10-17T21:04:05;9.02;;;3.60;;
63114;SDS011;49208;50.874;6.466;2022-10-17T21:06:31;4.13;;;2.45;;
63114;SDS011;49208;50.874;6.466;2022-10-17T21:08:57;5.38;;;2.63;;
63114;SDS011;49208;50.874;6.466;2022-10-17T21:11:23;5.95;;;3.05;;
63114;SDS011;49208;50.874;6.466;2022-10-17T21:13:57;5.22;;;3.10;;
63114;SDS011;49208;50.874;6.466;2022-10-17T21:16:31;6.38;;;3.03;;
63114;SDS011;49208;50.874;6.466;2022-10-17T21:18:58;4.32;;;2.22;;
63114;SDS011;49208;50.874;6.466;2022-10-17T21:21:25;8.32;;;2.90;;
63114;SDS011;49208;50.874;6.466;2022-10-17T21:23:55;3.70;;;1.90;;
63114;SDS011;49208;50.874;6.466;2022-10-17T21:26:22;5.70;;;2.83;;
63114;SDS011;49208;50.874;6.466;2022-10-17T21:28:48;4.50;;;2.72;;
63114;SDS011;49208;50.874;6.466;2022-10-17T21:31:15;4.18;;;2.13;;
63114;SDS011;49208;50.874;6.466;2022-10-17T21:33:42;5.03;;;2.63;;
63114;SDS011;49208;50.874;6.466;2022-10-17T21:36:11;4.95;;;2.85;;
63114;SDS011;49208;50.874;6.466;2022-10-17T21:38:38;5.63;;;2.97;;
63114;SDS011;49208;50.874;6.466;2022-10-17T21:41:04;4.43;;;2.63;;
63114;SDS011;49208;50.874;6.466;2022-10-17T21:43:31;5.63;;;2.80;;
63114;SDS011;49208;50.874;6.466;2022-10-17T21:46:01;5.55;;;3.03;;
63114;SDS011;49208;50.874;6.466;2022-10-17T21:48:28;4.97;;;3.13;;
63114;SDS011;49208;50.874;6.466;2022-10-17T21:51:04;7.82;;;2.80;;
63114;SDS011;49208;50.874;6.466;2022-10-17T21:53:32;5.90;;;2.92;;